Time;durP1;ratioP1;P1;durP2;ratioP2;P2;SDS_P1;SDS_P2;PMS_P1;PMS_P2;Temp;Humidity;BMP_temperature;BMP_pressure;BME280_temperature;BME280_humidity;BME280_pressure;Samples;Min_cycle;Max_cycle;Signal;HPM_P1;HPM_P2
2022/04/29 00:01:19;;;;;;;6.27;5.67;;;15.90;48.80;;;;;;5030801;28;20684;-42
2022/04/29 00:03:44;;;;;;;6.33;5.83;;;15.90;48.60;;;;;;5031337;28;20216;-43
2022/04/29 00:06:10;;;;;;;6.60;6.00;;;15.90;48.80;;;;;;5029332;28;20526;-44
2022/04/29 00:08:36;;;;;;;6.67;6.07;;;15.80;48.70;;;;;;5031742;28;20204;-43
2022/04/29 00:11:02;;;;;;;6.43;5.93;;;15.70;49.00;;;;;;5030686;28;20707;-44
2022/04/29 00:13:27;;;;;;;6.70;6.10;;;15.60;49.40;;;;;;5031032;28;20197;-43
2022/04/29 00:15:53;;;;;;;7.20;6.50;;;15.60;49.50;;;;;;5030692;28;20200;-42
2022/04/29 00:18:18;;;;;;;8.33;6.43;;;15.50;49.60;;;;;;5031267;28;20254;-43
2022/04/29 00:20:44;;;;;;;6.23;5.63;;;15.40;49.80;;;;;;5030223;28;20224;-42
2022/04/29 00:23:11;;;;;;;7.53;6.77;;;15.30;50.20;;;;;;5031126;28;20717;-44
2022/04/29 00:25:36;;;;;;;8.97;6.50;;;15.40;50.00;;;;;;5030745;28;20284;-42
2022/04/29 00:28:03;;;;;;;6.50;5.80;;;15.40;50.10;;;;;;5031185;28;20500;-42
2022/04/29 00:30:29;;;;;;;10.50;5.90;;;15.20;50.30;;;;;;5030198;28;20526;-42
2022/04/29 00:32:55;;;;;;;6.30;5.80;;;15.20;50.30;;;;;;5029232;28;20416;-42
2022/04/29 00:35:22;;;;;;;6.30;5.80;;;15.10;50.30;;;;;;5030586;28;20185;-43
2022/04/29 00:37:50;;;;;;;7.23;6.63;;;15.00;50.80;;;;;;5031025;28;20424;-43
2022/04/29 00:40:18;;;;;;;6.00;5.50;;;14.60;51.30;;;;;;5030107;28;20479;-42
2022/04/29 00:42:45;;;;;;;7.30;6.60;;;14.20;52.40;;;;;;5030088;28;20923;-42
2022/04/29 00:45:14;;;;;;;6.77;6.17;;;13.90;53.40;;;;;;5030142;28;20493;-43
2022/04/29 00:47:41;;;;;;;6.93;5.60;;;13.80;53.50;;;;;;5030717;28;20833;-43
2022/04/29 00:50:08;;;;;;;7.40;5.87;;;13.70;53.80;;;;;;5030307;28;20517;-44
2022/04/29 00:52:36;;;;;;;7.13;6.43;;;13.80;53.90;;;;;;5030072;28;20543;-42
2022/04/29 00:55:12;;;;;;;7.17;6.47;;;14.00;53.50;;;;;;5030604;28;20440;-42
2022/04/29 00:58:06;;;;;;;7.27;6.57;;;14.10;53.20;;;;;;5031016;28;20424;-43
2022/04/29 01:00:31;;;;;;;7.03;6.43;;;14.20;52.70;;;;;;5028279;28;20578;-42
2022/04/29 01:03:00;;;;;;;6.40;5.80;;;14.20;52.70;;;;;;5029902;28;20515;-44
2022/04/29 01:05:26;;;;;;;7.03;6.30;;;14.10;52.90;;;;;;5029947;28;20300;-43
2022/04/29 01:07:52;;;;;;;6.73;6.07;;;13.90;53.40;;;;;;5030342;28;20444;-43
2022/04/29 01:10:20;;;;;;;7.90;6.67;;;13.90;53.60;;;;;;5030092;28;20189;-44
2022/04/29 01:12:58;;;;;;;6.30;5.70;;;13.90;53.40;;;;;;5029994;28;20435;-43
2022/04/29 01:15:24;;;;;;;7.43;6.83;;;14.10;53.10;;;;;;5029703;28;20927;-42
2022/04/29 01:17:54;;;;;;;6.13;5.63;;;14.20;53.30;;;;;;5030652;28;20436;-44
2022/04/29 01:20:30;;;;;;;7.87;6.80;;;14.10;52.60;;;;;;5029844;28;20488;-43
2022/04/29 01:22:56;;;;;;;7.33;6.63;;;14.10;52.80;;;;;;5029749;28;20832;-43
2022/04/29 01:25:22;;;;;;;8.70;6.50;;;14.20;52.60;;;;;;5029842;28;20527;-43
2022/04/29 01:27:49;;;;;;;6.83;6.23;;;14.20;52.50;;;;;;5028980;28;20915;-43
2022/04/29 01:30:18;;;;;;;7.27;6.00;;;13.90;52.60;;;;;;5029637;28;20428;-44
2022/04/29 01:32:44;;;;;;;6.97;6.37;;;13.80;53.00;;;;;;5029743;28;20923;-43
2022/04/29 01:35:12;;;;;;;7.77;6.40;;;13.90;52.80;;;;;;5029712;28;20762;-44
2022/04/29 01:37:39;;;;;;;10.00;7.13;;;13.60;53.10;;;;;;5030356;28;20417;-43
2022/04/29 01:40:05;;;;;;;6.53;5.93;;;13.60;53.60;;;;;;5029791;28;20967;-44
2022/04/29 01:42:31;;;;;;;7.57;6.73;;;13.50;53.70;;;;;;5029609;28;20467;-43
2022/04/29 01:44:57;;;;;;;7.30;6.60;;;13.60;53.50;;;;;;5029881;28;20434;-43
2022/04/29 01:47:22;;;;;;;9.60;6.47;;;13.60;53.60;;;;;;5029546;28;20637;-42
2022/04/29 01:49:48;;;;;;;7.57;6.97;;;13.50;53.90;;;;;;5029972;28;20205;-43
2022/04/29 01:52:14;;;;;;;7.40;6.70;;;13.20;54.70;;;;;;5029164;28;20203;-43
2022/04/29 01:54:39;;;;;;;7.50;6.80;;;13.30;54.60;;;;;;5028692;28;20189;-43
2022/04/29 01:57:06;;;;;;;6.70;6.20;;;13.30;54.30;;;;;;5029523;28;20665;-43
2022/04/29 01:59:32;;;;;;;8.07;6.93;;;13.40;54.40;;;;;;5029851;28;20231;-43
2022/04/29 02:01:58;;;;;;;6.90;6.40;;;13.50;53.90;;;;;;5029007;28;20428;-43
2022/04/29 02:04:24;;;;;;;10.07;6.63;;;13.40;54.00;;;;;;5029540;28;20424;-43
2022/04/29 02:06:50;;;;;;;7.70;7.00;;;13.40;54.10;;;;;;5029618;28;20424;-43
2022/04/29 02:09:16;;;;;;;7.33;6.63;;;13.30;54.30;;;;;;5029935;28;20427;-43
2022/04/29 02:12:03;;;;;;;8.33;6.90;;;13.30;54.30;;;;;;5031851;28;20682;-44
2022/04/29 02:14:28;;;;;;;7.07;5.93;;;13.40;54.20;;;;;;5033045;28;20287;-43
2022/04/29 02:16:55;;;;;;;7.47;6.87;;;13.40;53.90;;;;;;5033249;28;20439;-43
2022/04/29 02:19:22;;;;;;;7.40;6.70;;;13.30;53.90;;;;;;5032912;28;20503;-47
2022/04/29 02:21:48;;;;;;;7.13;6.50;;;13.00;55.30;;;;;;5031562;28;20962;-43
2022/04/29 02:24:14;;;;;;;6.63;6.00;;;13.10;55.10;;;;;;5033542;28;20826;-44
2022/04/29 02:26:39;;;;;;;8.17;6.83;;;13.30;54.40;;;;;;5032892;28;20431;-43
2022/04/29 02:29:05;;;;;;;8.73;6.70;;;13.30;54.10;;;;;;5033333;28;20189;-43
2022/04/29 02:31:30;;;;;;;6.87;6.30;;;13.30;53.90;;;;;;5032361;28;20243;-42
2022/04/29 02:33:56;;;;;;;6.93;6.23;;;13.30;53.90;;;;;;5033020;28;20268;-43
2022/04/29 02:36:23;;;;;;;7.10;6.50;;;13.30;54.10;;;;;;5032867;28;20189;-42
2022/04/29 02:38:48;;;;;;;7.53;6.83;;;13.20;53.90;;;;;;5033278;28;20258;-42
2022/04/29 02:41:14;;;;;;;7.17;6.40;;;13.20;53.70;;;;;;5031387;28;20483;-43
2022/04/29 02:43:40;;;;;;;10.57;6.97;;;13.10;53.90;;;;;;5032635;28;20193;-45
2022/04/29 02:46:06;;;;;;;8.90;6.63;;;13.00;54.40;;;;;;5032701;28;20661;-43
2022/04/29 02:48:32;;;;;;;8.47;7.60;;;12.80;54.50;;;;;;5030887;28;20463;-42
2022/04/29 02:50:57;;;;;;;6.60;6.00;;;12.60;54.90;;;;;;5032076;28;20193;-42
2022/04/29 02:53:23;;;;;;;8.00;6.70;;;12.50;55.50;;;;;;5032356;28;20292;-42
2022/04/29 02:55:48;;;;;;;7.30;6.60;;;12.20;55.90;;;;;;5032194;28;20613;-42
2022/04/29 02:58:14;;;;;;;7.50;6.70;;;12.10;56.30;;;;;;5032970;28;20201;-42
2022/04/29 03:00:39;;;;;;;7.17;6.43;;;12.20;56.30;;;;;;5031975;28;20252;-43
2022/04/29 03:03:05;;;;;;;8.97;6.87;;;12.30;56.20;;;;;;5032096;28;20201;-43
2022/04/29 03:05:31;;;;;;;6.40;5.90;;;12.40;55.70;;;;;;5032220;28;20189;-43
2022/04/29 03:07:57;;;;;;;7.53;6.80;;;12.40;55.80;;;;;;5032340;28;20416;-42
2022/04/29 03:10:23;;;;;;;8.27;6.60;;;12.50;55.50;;;;;;5032201;28;20196;-43
2022/04/29 03:12:49;;;;;;;10.03;6.53;;;12.60;55.10;;;;;;5032084;28;20193;-42
2022/04/29 03:15:17;;;;;;;7.80;7.20;;;12.60;55.00;;;;;;5030196;28;20194;-43
2022/04/29 03:20:30;;;;;;;6.87;6.20;;;12.30;55.40;;;;;;5031582;28;20581;-43
2022/04/29 03:22:56;;;;;;;7.37;6.57;;;12.10;56.20;;;;;;5032018;28;20839;-42
2022/04/29 03:25:21;;;;;;;7.87;7.17;;;11.80;57.10;;;;;;5031676;28;20442;-43
2022/04/29 03:27:47;;;;;;;8.13;7.37;;;11.60;57.80;;;;;;5032260;28;20485;-43
2022/04/29 03:30:13;;;;;;;7.50;6.80;;;11.40;58.40;;;;;;5031586;28;21570;-42
2022/04/29 03:32:38;;;;;;;8.40;7.53;;;11.60;58.20;;;;;;5031887;28;20609;-43
2022/04/29 03:35:04;;;;;;;11.47;7.47;;;11.50;57.90;;;;;;5031847;28;20539;-43
2022/04/29 03:37:31;;;;;;;7.50;6.90;;;11.70;58.00;;;;;;5031815;28;20236;-42
2022/04/29 03:39:56;;;;;;;8.70;7.90;;;11.90;57.30;;;;;;5031856;28;20491;-43
2022/04/29 03:42:22;;;;;;;7.80;7.10;;;11.80;57.00;;;;;;5029220;28;20443;-43
2022/04/29 03:44:48;;;;;;;6.93;6.33;;;11.90;57.60;;;;;;5031600;28;20248;-42
2022/04/29 03:47:13;;;;;;;7.30;6.70;;;12.00;56.90;;;;;;5031413;28;20233;-42
2022/04/29 03:49:39;;;;;;;7.33;6.73;;;12.10;56.50;;;;;;5031745;28;20563;-42
2022/04/29 03:52:05;;;;;;;8.40;7.60;;;12.10;56.20;;;;;;5030891;28;20193;-43
2022/04/29 03:54:32;;;;;;;8.20;7.40;;;12.20;56.00;;;;;;5031670;28;20197;-42
2022/04/29 03:56:58;;;;;;;7.33;6.53;;;12.20;56.10;;;;;;5031164;28;20510;-42
2022/04/29 03:59:24;;;;;;;7.43;6.73;;;12.20;55.90;;;;;;5031587;28;20546;-42
2022/04/29 04:01:49;;;;;;;7.97;7.27;;;12.30;55.70;;;;;;5030603;28;20436;-42
2022/04/29 04:04:15;;;;;;;8.70;7.80;;;12.30;55.50;;;;;;5031336;28;20196;-43
2022/04/29 04:06:49;;;;;;;8.23;7.43;;;12.00;56.20;;;;;;5031021;28;20716;-43
2022/04/29 04:09:16;;;;;;;8.20;7.40;;;12.10;56.10;;;;;;5029792;28;20266;-42
2022/04/29 04:11:42;;;;;;;10.60;8.07;;;12.20;55.70;;;;;;5030375;28;20444;-42
2022/04/29 04:14:09;;;;;;;7.97;7.27;;;12.30;55.50;;;;;;5031681;28;20518;-42
2022/04/29 04:16:36;;;;;;;7.00;6.50;;;12.30;55.30;;;;;;5030774;28;20242;-43
2022/04/29 04:19:02;;;;;;;7.70;6.90;;;12.30;55.20;;;;;;5031216;28;20421;-42
2022/04/29 04:21:28;;;;;;;7.20;6.50;;;12.30;55.10;;;;;;5030020;28;20480;-42
2022/04/29 04:23:54;;;;;;;7.27;6.57;;;12.20;55.20;;;;;;5031069;28;20431;-42
2022/04/29 04:26:20;;;;;;;8.17;7.47;;;12.30;55.20;;;;;;5030626;28;20657;-43
2022/04/29 04:28:46;;;;;;;7.90;7.10;;;12.00;55.40;;;;;;5030817;28;20439;-42
2022/04/29 04:31:12;;;;;;;8.10;6.53;;;11.90;56.00;;;;;;5029935;28;20436;-42
2022/04/29 04:33:37;;;;;;;7.57;6.97;;;11.70;56.60;;;;;;5030507;28;20220;-42
2022/04/29 04:36:04;;;;;;;7.37;6.77;;;11.70;56.60;;;;;;5029079;28;20272;-42
2022/04/29 04:38:30;;;;;;;10.80;7.13;;;11.70;57.00;;;;;;5030784;28;20280;-42
2022/04/29 04:40:56;;;;;;;9.03;7.20;;;11.80;56.90;;;;;;5030261;28;20986;-42
2022/04/29 04:43:22;;;;;;;7.70;7.00;;;12.00;56.30;;;;;;5030303;28;20417;-42
2022/04/29 04:45:48;;;;;;;7.57;6.90;;;12.10;56.00;;;;;;5029899;28;20688;-42
2022/04/29 04:48:13;;;;;;;7.77;6.50;;;12.30;55.80;;;;;;5030582;28;20499;-42
2022/04/29 04:50:39;;;;;;;7.40;6.70;;;12.30;55.50;;;;;;5030268;28;20416;-43
2022/04/29 04:53:04;;;;;;;7.63;6.53;;;12.20;55.70;;;;;;5030329;28;20645;-43
2022/04/29 04:55:31;;;;;;;7.17;6.57;;;11.90;56.30;;;;;;5030204;28;20201;-42
2022/04/29 04:57:57;;;;;;;8.40;7.60;;;11.80;56.90;;;;;;5030309;28;20641;-43
2022/04/29 05:00:22;;;;;;;7.70;6.90;;;11.90;56.80;;;;;;5030181;28;20537;-43
2022/04/29 05:02:48;;;;;;;7.67;6.80;;;11.60;57.20;;;;;;5028800;28;20203;-43
2022/04/29 05:05:14;;;;;;;8.47;7.70;;;11.70;57.60;;;;;;5029970;28;20649;-43
2022/04/29 05:07:40;;;;;;;7.70;7.00;;;11.70;57.30;;;;;;5030421;28;20213;-43
2022/04/29 05:10:09;;;;;;;11.87;7.60;;;11.50;58.00;;;;;;5030452;28;20200;-43
2022/04/29 05:12:53;;;;;;;11.10;7.07;;;11.70;57.90;;;;;;5030039;28;20523;-44
2022/04/29 05:15:18;;;;;;;9.57;7.10;;;11.80;57.30;;;;;;5029913;28;20427;-44
2022/04/29 05:17:44;;;;;;;7.50;6.80;;;11.70;57.60;;;;;;5029957;28;20427;-44
2022/04/29 05:20:12;;;;;;;7.53;6.83;;;11.80;57.40;;;;;;5030099;28;20236;-44
2022/04/29 05:22:37;;;;;;;8.07;7.37;;;11.80;57.70;;;;;;5030534;28;20189;-43
2022/04/29 05:25:04;;;;;;;8.13;7.47;;;11.60;58.20;;;;;;5030281;28;20424;-44
2022/04/29 05:27:30;;;;;;;9.33;7.70;;;11.80;57.70;;;;;;5029615;28;20223;-44
2022/04/29 05:29:57;;;;;;;8.70;7.80;;;12.00;57.00;;;;;;5028726;28;20420;-43
2022/04/29 05:32:26;;;;;;;9.40;7.00;;;12.10;57.00;;;;;;5029338;28;20680;-43
2022/04/29 05:34:52;;;;;;;7.77;7.03;;;12.20;56.60;;;;;;5030241;28;20435;-44
2022/04/29 05:37:18;;;;;;;7.50;6.80;;;12.30;56.30;;;;;;5029715;28;20769;-43
2022/04/29 05:42:28;;;;;;;7.40;6.70;;;12.50;55.90;;;;;;5029437;28;21002;-44
2022/04/29 05:44:54;;;;;;;7.93;7.23;;;12.60;55.50;;;;;;5029987;28;20464;-43
2022/04/29 05:47:20;;;;;;;7.60;6.90;;;12.50;55.50;;;;;;5033310;28;20312;-43
2022/04/29 05:49:46;;;;;;;8.83;7.93;;;12.30;56.10;;;;;;5033774;28;20197;-44
2022/04/29 05:52:11;;;;;;;11.80;9.60;;;12.50;56.30;;;;;;5033257;28;20469;-45
2022/04/29 05:54:37;;;;;;;9.83;8.47;;;12.50;55.70;;;;;;5034100;28;20672;-43
2022/04/29 05:57:04;;;;;;;9.07;8.20;;;12.00;56.50;;;;;;5031761;28;20193;-44
2022/04/29 05:59:30;;;;;;;8.07;7.33;;;11.90;57.20;;;;;;5033575;28;20517;-43
2022/04/29 06:01:56;;;;;;;8.10;7.40;;;11.90;57.80;;;;;;5032982;28;20919;-43
2022/04/29 06:04:22;;;;;;;8.50;7.40;;;12.30;57.20;;;;;;5033611;28;20489;-44
2022/04/29 06:06:48;;;;;;;8.30;7.50;;;12.60;56.40;;;;;;5033359;28;20424;-44
2022/04/29 06:09:14;;;;;;;7.63;6.93;;;12.80;55.60;;;;;;5033659;28;20193;-43
2022/04/29 06:11:39;;;;;;;7.93;7.17;;;13.10;55.20;;;;;;5032908;28;20412;-44
2022/04/29 06:14:05;;;;;;;8.70;7.53;;;13.20;54.60;;;;;;5033291;28;20189;-44
2022/04/29 06:16:31;;;;;;;7.27;6.67;;;13.40;54.40;;;;;;5032999;28;20212;-44
2022/04/29 06:18:57;;;;;;;8.57;7.77;;;13.40;54.30;;;;;;5033500;28;20185;-44
2022/04/29 06:21:22;;;;;;;8.63;7.67;;;13.00;55.00;;;;;;5032711;28;20308;-44
2022/04/29 06:23:48;;;;;;;12.43;7.70;;;13.00;55.60;;;;;;5031838;28;20493;-43
2022/04/29 06:26:14;;;;;;;9.50;8.60;;;13.20;55.50;;;;;;5032726;28;20193;-43
2022/04/29 06:28:40;;;;;;;8.43;7.63;;;13.40;55.20;;;;;;5033419;28;20275;-43
2022/04/29 06:31:07;;;;;;;10.67;7.93;;;13.30;55.40;;;;;;5032630;28;20467;-43
2022/04/29 06:33:34;;;;;;;8.87;7.70;;;13.30;55.50;;;;;;5033096;28;20316;-43
2022/04/29 06:36:01;;;;;;;8.80;8.00;;;13.60;55.30;;;;;;5032688;28;20424;-44
2022/04/29 06:38:27;;;;;;;10.50;7.97;;;13.90;54.70;;;;;;5033205;28;20431;-43
2022/04/29 06:40:52;;;;;;;9.47;7.77;;;14.00;53.40;;;;;;5032671;28;20475;-44
2022/04/29 06:43:19;;;;;;;9.13;8.10;;;14.10;53.90;;;;;;5032492;28;20443;-43
2022/04/29 06:45:44;;;;;;;8.00;7.20;;;14.60;53.20;;;;;;5032610;28;20252;-44
2022/04/29 06:48:10;;;;;;;9.23;7.63;;;14.90;52.70;;;;;;5032827;28;21013;-45
2022/04/29 06:50:35;;;;;;;8.70;7.90;;;15.20;52.10;;;;;;5030953;28;20659;-43
2022/04/29 06:53:01;;;;;;;8.90;8.00;;;15.60;51.70;;;;;;5032255;28;21528;-44
2022/04/29 06:55:27;;;;;;;8.17;7.37;;;15.80;51.00;;;;;;5032130;28;20209;-44
2022/04/29 06:57:53;;;;;;;7.70;6.90;;;16.00;50.50;;;;;;5032269;28;20693;-44
2022/04/29 07:00:19;;;;;;;9.90;8.90;;;16.20;49.90;;;;;;5032022;28;20491;-43
2022/04/29 07:02:45;;;;;;;9.03;8.00;;;16.20;49.80;;;;;;5031993;28;20193;-43
2022/04/29 07:05:11;;;;;;;7.60;6.87;;;16.30;49.90;;;;;;5032048;28;20428;-44
2022/04/29 07:07:37;;;;;;;8.90;7.40;;;16.40;49.50;;;;;;5032703;28;20450;-43
2022/04/29 07:10:04;;;;;;;8.53;7.73;;;16.60;49.00;;;;;;5032490;28;20525;-43
2022/04/29 07:12:31;;;;;;;10.17;7.30;;;16.60;48.70;;;;;;5031408;28;20198;-44
2022/04/29 07:14:57;;;;;;;9.33;8.53;;;16.60;49.30;;;;;;5032552;28;20436;-43
2022/04/29 07:17:23;;;;;;;9.53;8.00;;;16.60;48.50;;;;;;5030139;28;20436;-43
2022/04/29 07:19:50;;;;;;;8.77;8.07;;;16.80;48.50;;;;;;5032397;28;20472;-44
2022/04/29 07:22:16;;;;;;;8.47;7.67;;;17.00;48.40;;;;;;5031221;28;20428;-44
2022/04/29 07:24:42;;;;;;;8.07;7.37;;;17.20;47.70;;;;;;5032340;28;20428;-44
2022/04/29 07:27:08;;;;;;;8.47;7.60;;;17.20;47.40;;;;;;5031983;28;20535;-44
2022/04/29 07:29:34;;;;;;;8.50;7.60;;;17.50;47.70;;;;;;5032083;28;20514;-44
2022/04/29 07:31:59;;;;;;;8.57;7.77;;;17.60;47.00;;;;;;5029926;28;20738;-44
2022/04/29 07:41:44;;;;;;;12.67;8.97;;;17.70;46.50;;;;;;5032079;28;20189;-44
2022/04/29 07:42:38;;;;;;;7.83;7.13;;;17.90;46.70;;;;;;5030768;28;20531;-44
2022/04/29 07:45:04;;;;;;;9.03;7.90;;;18.20;46.50;;;;;;5030989;28;20511;-44
2022/04/29 07:47:30;;;;;;;7.90;7.10;;;18.40;45.80;;;;;;5031422;28;20963;-44
2022/04/29 07:49:55;;;;;;;8.20;7.50;;;18.60;45.20;;;;;;5031376;28;20432;-44
2022/04/29 07:52:21;;;;;;;7.87;7.10;;;18.70;44.60;;;;;;5031003;28;20272;-43
2022/04/29 07:54:47;;;;;;;8.13;7.33;;;18.80;44.50;;;;;;5031635;28;20205;-44
2022/04/29 07:57:12;;;;;;;8.93;8.20;;;19.00;43.40;;;;;;5031007;28;20304;-43
2022/04/29 07:59:38;;;;;;;8.27;7.47;;;19.20;42.50;;;;;;5031601;28;20252;-44
2022/04/29 08:02:04;;;;;;;8.97;7.90;;;19.30;42.20;;;;;;5030984;28;20247;-44
2022/04/29 08:04:30;;;;;;;9.63;8.10;;;19.20;41.90;;;;;;5031589;28;20201;-44
2022/04/29 08:06:55;;;;;;;8.77;8.00;;;19.30;41.90;;;;;;5030756;28;20432;-43
2022/04/29 08:09:21;;;;;;;7.07;6.43;;;19.40;41.70;;;;;;5029335;28;20623;-44
2022/04/29 08:11:47;;;;;;;8.90;7.63;;;19.20;42.90;;;;;;5029211;28;20280;-44
2022/04/29 08:14:12;;;;;;;8.67;7.87;;;19.30;43.10;;;;;;5031245;28;20683;-44
2022/04/29 08:16:38;;;;;;;8.13;7.33;;;19.50;43.00;;;;;;5030851;28;20284;-44
2022/04/29 08:19:04;;;;;;;8.47;7.70;;;19.70;43.00;;;;;;5031164;28;20216;-44
2022/04/29 08:21:29;;;;;;;8.47;7.67;;;19.90;43.00;;;;;;5030151;28;20251;-44
2022/04/29 08:23:55;;;;;;;8.60;7.67;;;20.00;42.20;;;;;;5031071;28;20190;-44
2022/04/29 08:26:20;;;;;;;9.00;8.10;;;20.10;42.00;;;;;;5030519;28;20240;-44
2022/04/29 08:28:46;;;;;;;8.10;7.30;;;20.30;41.80;;;;;;5031030;28;20185;-44
2022/04/29 08:31:12;;;;;;;7.57;6.87;;;20.40;42.40;;;;;;5030088;28;20602;-44
2022/04/29 08:33:38;;;;;;;8.83;7.77;;;20.40;41.90;;;;;;5031156;28;20656;-44
2022/04/29 08:36:03;;;;;;;8.07;7.27;;;20.60;42.50;;;;;;5030270;28;20463;-45
2022/04/29 08:38:30;;;;;;;10.27;7.97;;;20.60;42.80;;;;;;5028006;28;20558;-46
2022/04/29 08:41:00;;;;;;;8.40;7.37;;;20.70;42.50;;;;;;5030145;28;20645;-44
2022/04/29 08:43:27;;;;;;;8.20;7.10;;;20.90;42.40;;;;;;5030960;28;20424;-44
2022/04/29 08:45:54;;;;;;;8.33;7.33;;;21.10;43.10;;;;;;5029952;28;20460;-44
2022/04/29 08:48:19;;;;;;;9.10;8.20;;;21.40;41.30;;;;;;5030528;28;20467;-46
2022/04/29 08:50:45;;;;;;;8.20;7.50;;;21.60;40.70;;;;;;5029768;28;20474;-46
2022/04/29 08:53:11;;;;;;;8.23;7.53;;;21.80;40.70;;;;;;5030738;28;20328;-46
2022/04/29 08:58:37;;;;;;;8.77;7.37;;;22.30;39.60;;;;;;5030479;28;20216;-46
2022/04/29 09:01:13;;;;;;;11.30;7.43;;;22.50;40.20;;;;;;5029566;28;20518;-45
2022/04/29 09:03:42;;;;;;;10.07;7.03;;;22.70;40.60;;;;;;5029110;28;20431;-44
2022/04/29 09:06:08;;;;;;;6.73;6.03;;;22.90;40.20;;;;;;5029924;28;20436;-44
2022/04/29 09:08:46;;;;;;;9.67;7.30;;;23.20;39.40;;;;;;5030694;28;20436;-45
2022/04/29 09:11:26;;;;;;;7.57;6.97;;;23.50;39.30;;;;;;5029406;28;20966;-46
2022/04/29 09:13:52;;;;;;;5.97;5.47;;;23.70;39.50;;;;;;5023066;28;20822;-48
2022/04/29 09:16:17;;;;;;;6.60;6.00;;;23.90;34.20;;;;;;5029601;28;20448;-47
2022/04/29 09:18:49;;;;;;;7.37;6.67;;;23.60;34.10;;;;;;5030197;28;20420;-46
2022/04/29 09:21:17;;;;;;;8.07;6.90;;;23.70;34.40;;;;;;5028140;28;20239;-44
2022/04/29 09:23:59;;;;;;;7.20;6.50;;;23.90;36.40;;;;;;5030082;28;20424;-48
2022/04/29 09:26:36;;;;;;;6.40;5.90;;;24.00;32.50;;;;;;5029547;28;20439;-47
2022/04/29 09:29:11;;;;;;;6.33;5.43;;;24.10;32.20;;;;;;5030188;28;20438;-45
2022/04/29 09:32:00;;;;;;;6.97;5.03;;;24.10;31.00;;;;;;5027880;28;20443;-47
2022/04/29 09:34:53;;;;;;;5.30;4.90;;;24.10;31.10;;;;;;5030128;28;20939;-44
2022/04/29 09:37:27;;;;;;;5.80;4.93;;;24.10;30.30;;;;;;5029452;28;20501;-47
2022/04/29 09:40:04;;;;;;;5.97;4.97;;;24.30;30.40;;;;;;5030227;28;20486;-45
2022/04/29 09:42:37;;;;;;;5.30;4.77;;;24.30;29.90;;;;;;5029699;28;20474;-45
2022/04/29 09:45:22;;;;;;;4.73;4.20;;;23.60;29.50;;;;;;5030072;28;20479;-45
2022/04/29 09:47:53;;;;;;;7.73;4.43;;;23.60;29.70;;;;;;5029865;28;20588;-43
2022/04/29 09:50:19;;;;;;;5.63;4.20;;;23.60;29.50;;;;;;5029406;28;20428;-42
2022/04/29 09:52:45;;;;;;;4.33;3.93;;;23.80;29.60;;;;;;5029696;28;20486;-43
2022/04/29 09:55:15;;;;;;;4.40;4.00;;;24.20;29.50;;;;;;5029496;28;20201;-45
2022/04/29 09:57:56;;;;;;;7.73;4.33;;;24.50;29.60;;;;;;5028144;28;20471;-44
2022/04/29 10:00:22;;;;;;;4.30;3.90;;;24.10;28.00;;;;;;5029416;28;21032;-44
2022/04/29 10:02:49;;;;;;;4.60;4.20;;;24.30;28.90;;;;;;5029717;28;20440;-44
2022/04/29 10:05:15;;;;;;;4.80;4.30;;;24.20;28.20;;;;;;5029318;28;20255;-46
2022/04/29 10:07:42;;;;;;;4.07;3.77;;;23.60;28.70;;;;;;5029963;28;20912;-44
2022/04/29 10:10:11;;;;;;;4.83;4.30;;;23.60;29.20;;;;;;5029839;28;20446;-43
2022/04/29 10:12:38;;;;;;;4.43;4.13;;;24.10;29.80;;;;;;5029521;28;20428;-45
2022/04/29 10:15:16;;;;;;;4.10;3.80;;;24.30;28.80;;;;;;5029839;28;20435;-43
2022/04/29 10:23:30;;;;;;;4.60;4.20;;;24.90;27.80;;;;;;5026928;28;21077;-43
2022/04/29 10:25:56;;;;;;;4.27;3.97;;;24.80;27.80;;;;;;5027415;28;20435;-46
2022/04/29 10:28:24;;;;;;;4.87;3.80;;;24.40;27.20;;;;;;5029770;28;20947;-44
2022/04/29 10:31:09;;;;;;;6.70;4.60;;;24.10;27.80;;;;;;5028876;28;20950;-46
2022/04/29 10:33:36;;;;;;;4.63;3.87;;;24.20;28.20;;;;;;5033051;28;20434;-43
2022/04/29 10:36:07;;;;;;;4.80;3.90;;;24.50;28.40;;;;;;5032556;28;20431;-42
2022/04/29 10:38:43;;;;;;;5.07;3.90;;;24.60;27.40;;;;;;5033047;28;20424;-43
2022/04/29 10:41:21;;;;;;;3.70;3.40;;;24.90;28.00;;;;;;5032228;28;20495;-43
2022/04/29 10:43:50;;;;;;;5.60;3.73;;;25.00;27.60;;;;;;5033078;28;20435;-44
2022/04/29 10:46:17;;;;;;;4.17;3.70;;;24.60;27.00;;;;;;5032442;28;20912;-44
2022/04/29 10:48:43;;;;;;;5.60;2.97;;;24.60;27.50;;;;;;5032537;28;20982;-45
2022/04/29 10:51:09;;;;;;;8.00;3.83;;;24.80;28.00;;;;;;5031622;28;20518;-45
2022/04/29 10:53:37;;;;;;;5.80;3.10;;;24.80;27.50;;;;;;5032207;28;20447;-44
2022/04/29 10:56:28;;;;;;;4.30;3.37;;;25.10;28.40;;;;;;5032099;28;20432;-45
2022/04/29 10:59:19;;;;;;;5.73;3.47;;;25.50;27.40;;;;;;5032808;28;20520;-43
2022/04/29 11:02:03;;;;;;;4.70;3.03;;;25.40;27.20;;;;;;5031787;28;20451;-43
2022/04/29 11:04:31;;;;;;;4.40;4.00;;;25.30;27.10;;;;;;5031547;28;20475;-42
2022/04/29 11:06:57;;;;;;;3.30;3.10;;;25.00;26.90;;;;;;5032332;28;20842;-43
2022/04/29 11:09:26;;;;;;;3.80;3.40;;;25.20;26.40;;;;;;5032573;28;20474;-43
2022/04/29 11:11:52;;;;;;;3.70;3.40;;;25.10;26.90;;;;;;5031707;28;20244;-43
2022/04/29 11:14:18;;;;;;;3.70;3.50;;;25.60;27.00;;;;;;5032324;28;20903;-44
2022/04/29 11:16:52;;;;;;;4.90;3.53;;;26.00;26.60;;;;;;5032003;28;20436;-44
2022/04/29 11:19:28;;;;;;;4.23;3.87;;;26.20;26.00;;;;;;5030935;28;20420;-42
2022/04/29 11:24:48;;;;;;;3.70;3.50;;;25.80;26.50;;;;;;5032633;28;20829;-42
2022/04/29 11:27:23;;;;;;;4.87;3.50;;;25.70;26.20;;;;;;5031463;28;20424;-42
2022/04/29 11:29:49;;;;;;;4.03;3.73;;;25.70;26.10;;;;;;5032198;28;20424;-44
2022/04/29 11:32:22;;;;;;;7.90;3.93;;;25.70;25.90;;;;;;5031135;28;20502;-42
2022/04/29 11:34:55;;;;;;;5.07;3.53;;;26.20;26.00;;;;;;5032136;28;20529;-44
2022/04/29 11:37:26;;;;;;;4.10;3.20;;;26.70;25.90;;;;;;5032074;28;20474;-43
2022/04/29 11:39:54;;;;;;;3.53;3.23;;;26.90;25.20;;;;;;5032192;28;20876;-43
2022/04/29 11:42:19;;;;;;;4.20;3.90;;;27.20;25.10;;;;;;5031050;28;20424;-43
2022/04/29 11:44:45;;;;;;;4.00;3.37;;;26.80;25.60;;;;;;5031803;28;20440;-42
2022/04/29 11:47:14;;;;;;;3.73;3.43;;;26.40;25.20;;;;;;5029693;28;20233;-43
2022/04/29 11:49:39;;;;;;;4.47;3.40;;;26.80;25.00;;;;;;5031873;28;20194;-44
2022/04/29 11:52:24;;;;;;;3.40;3.10;;;26.20;25.20;;;;;;5031281;28;20429;-43
2022/04/29 11:54:54;;;;;;;3.73;3.03;;;25.80;26.30;;;;;;5031521;28;20200;-43
2022/04/29 11:57:23;;;;;;;3.60;3.20;;;25.70;25.80;;;;;;5031167;28;20428;-44
2022/04/29 11:59:49;;;;;;;3.50;3.30;;;25.80;25.70;;;;;;5031648;28;20567;-47
2022/04/29 12:02:20;;;;;;;3.80;3.50;;;25.70;25.30;;;;;;5030764;28;20416;-48
2022/04/29 12:05:00;;;;;;;3.20;3.00;;;26.10;25.20;;;;;;5031302;28;20471;-47
2022/04/29 12:07:28;;;;;;;3.37;3.17;;;25.60;25.00;;;;;;5031082;28;20811;-48
2022/04/29 12:09:54;;;;;;;2.63;2.47;;;24.70;25.60;;;;;;5031529;28;20846;-44
2022/04/29 12:12:28;;;;;;;3.27;3.07;;;24.70;26.30;;;;;;5028786;28;20738;-43
2022/04/29 12:14:55;;;;;;;4.33;3.30;;;25.00;26.30;;;;;;5031346;28;20457;-45
2022/04/29 12:17:41;;;;;;;3.03;2.73;;;25.20;26.00;;;;;;5030663;28;20761;-47
2022/04/29 12:20:09;;;;;;;3.60;3.30;;;25.60;26.40;;;;;;5031031;28;20583;-47
2022/04/29 12:22:41;;;;;;;4.63;3.07;;;25.50;26.00;;;;;;5030677;28;20799;-47
2022/04/29 12:25:33;;;;;;;3.70;3.33;;;25.40;26.00;;;;;;5030937;28;20928;-42
2022/04/29 12:28:20;;;;;;;3.23;2.90;;;25.30;25.70;;;;;;5031069;28;20539;-44
2022/04/29 12:36:52;;;;;;;3.20;2.90;;;25.70;25.80;;;;;;5030822;28;20442;-44
2022/04/29 12:39:24;;;;;;;4.47;3.20;;;25.70;26.20;;;;;;5029263;28;20489;-44
2022/04/29 12:42:01;;;;;;;3.50;3.20;;;26.00;26.00;;;;;;5029920;28;20448;-47
2022/04/29 12:47:23;;;;;;;3.77;3.47;;;25.80;26.00;;;;;;5030388;28;20494;-42
2022/04/29 12:49:49;;;;;;;3.73;3.27;;;26.00;25.50;;;;;;5030418;28;20920;-48
2022/04/29 12:52:15;;;;;;;3.23;3.00;;;25.90;26.00;;;;;;5029683;28;20427;-44
2022/04/29 12:54:40;;;;;;;3.47;3.17;;;26.00;25.40;;;;;;5030361;28;20616;-49
2022/04/29 12:57:06;;;;;;;4.27;2.80;;;26.40;25.10;;;;;;5030400;28;20424;-47
2022/04/29 12:59:36;;;;;;;3.07;2.87;;;26.80;26.60;;;;;;5030507;28;20323;-45
2022/04/29 13:02:05;;;;;;;3.27;3.07;;;27.00;25.70;;;;;;5029624;28;20711;-45
2022/04/29 13:04:31;;;;;;;3.40;3.10;;;26.90;25.60;;;;;;5030633;28;20440;-46
2022/04/29 13:06:56;;;;;;;3.37;3.10;;;27.30;25.00;;;;;;5028852;28;20424;-46
2022/04/29 13:09:24;;;;;;;4.10;3.67;;;27.50;24.80;;;;;;5030384;28;20193;-45
2022/04/29 13:11:50;;;;;;;3.50;3.30;;;27.80;25.80;;;;;;5029322;28;20255;-43
2022/04/29 13:14:16;;;;;;;3.20;3.00;;;27.90;24.70;;;;;;5030388;28;20446;-46
2022/04/29 13:16:43;;;;;;;3.90;3.60;;;27.60;25.10;;;;;;5030294;28;20837;-42
2022/04/29 13:19:09;;;;;;;5.93;3.80;;;27.50;25.00;;;;;;5030411;28;20432;-44
2022/04/29 13:21:35;;;;;;;4.53;3.03;;;28.00;25.00;;;;;;5029373;28;20534;-42